sensor_id;sensor_type;location;lat;lon;timestamp;P1;durP1;ratioP1;P2;durP2;ratioP2
64917;SDS011;52176;44.858;38.372;2023-02-22T00:01:31;5.63;;;2.00;;
64917;SDS011;52176;44.858;38.372;2023-02-22T00:04:07;3.72;;;2.40;;
64917;SDS011;52176;44.858;38.372;2023-02-22T00:06:35;7.82;;;2.20;;
64917;SDS011;52176;44.858;38.372;2023-02-22T00:09:01;4.22;;;1.90;;
64917;SDS011;52176;44.858;38.372;2023-02-22T00:11:27;3.92;;;2.00;;
64917;SDS011;52176;44.858;38.372;2023-02-22T00:13:53;4.60;;;1.90;;
64917;SDS011;52176;44.858;38.372;2023-02-22T00:18:49;2.60;;;1.45;;
64917;SDS011;52176;44.858;38.372;2023-02-22T00:21:16;3.42;;;1.73;;
64917;SDS011;52176;44.858;38.372;2023-02-22T00:23:44;6.35;;;1.85;;
64917;SDS011;52176;44.858;38.372;2023-02-22T00:26:12;1.83;;;1.30;;
64917;SDS011;52176;44.858;38.372;2023-02-22T00:28:47;2.72;;;1.48;;
64917;SDS011;52176;44.858;38.372;2023-02-22T00:31:15;5.07;;;1.70;;
64917;SDS011;52176;44.858;38.372;2023-02-22T00:33:42;7.90;;;1.90;;
64917;SDS011;52176;44.858;38.372;2023-02-22T00:36:09;4.28;;;1.60;;
64917;SDS011;52176;44.858;38.372;2023-02-22T00:38:36;2.13;;;1.60;;
64917;SDS011;52176;44.858;38.372;2023-02-22T00:41:02;5.97;;;1.70;;
64917;SDS011;52176;44.858;38.372;2023-02-22T00:43:28;2.13;;;1.30;;
64917;SDS011;52176;44.858;38.372;2023-02-22T00:45:54;6.10;;;1.77;;
64917;SDS011;52176;44.858;38.372;2023-02-22T00:48:23;2.15;;;1.30;;
64917;SDS011;52176;44.858;38.372;2023-02-22T00:50:50;2.83;;;1.20;;
64917;SDS011;52176;44.858;38.372;2023-02-22T00:53:19;5.55;;;1.50;;
64917;SDS011;52176;44.858;38.372;2023-02-22T00:55:47;4.38;;;1.65;;
64917;SDS011;52176;44.858;38.372;2023-02-22T00:58:13;2.22;;;1.48;;
64917;SDS011;52176;44.858;38.372;2023-02-22T01:00:39;2.15;;;1.50;;
64917;SDS011;52176;44.858;38.372;2023-02-22T01:03:07;1.48;;;1.08;;
64917;SDS011;52176;44.858;38.372;2023-02-22T01:05:35;3.28;;;1.40;;
64917;SDS011;52176;44.858;38.372;2023-02-22T01:08:03;2.47;;;1.20;;
64917;SDS011;52176;44.858;38.372;2023-02-22T01:10:33;3.38;;;1.50;;
64917;SDS011;52176;44.858;38.372;2023-02-22T01:13:01;3.05;;;1.42;;
64917;SDS011;52176;44.858;38.372;2023-02-22T01:15:33;2.20;;;1.30;;
64917;SDS011;52176;44.858;38.372;2023-02-22T01:18:00;3.55;;;1.35;;
64917;SDS011;52176;44.858;38.372;2023-02-22T01:20:27;3.20;;;1.52;;
64917;SDS011;52176;44.858;38.372;2023-02-22T01:22:57;6.22;;;1.65;;
64917;SDS011;52176;44.858;38.372;2023-02-22T01:25:28;2.83;;;1.60;;
64917;SDS011;52176;44.858;38.372;2023-02-22T01:27:56;5.45;;;1.30;;
64917;SDS011;52176;44.858;38.372;2023-02-22T01:30:27;2.13;;;1.30;;
64917;SDS011;52176;44.858;38.372;2023-02-22T01:32:55;2.67;;;1.45;;
64917;SDS011;52176;44.858;38.372;2023-02-22T01:35:23;4.53;;;1.60;;
64917;SDS011;52176;44.858;38.372;2023-02-22T01:37:52;4.50;;;1.20;;
64917;SDS011;52176;44.858;38.372;2023-02-22T01:40:20;3.05;;;1.20;;
64917;SDS011;52176;44.858;38.372;2023-02-22T01:42:52;2.33;;;1.30;;
64917;SDS011;52176;44.858;38.372;2023-02-22T01:47:55;1.85;;;1.35;;
64917;SDS011;52176;44.858;38.372;2023-02-22T01:50:25;3.47;;;1.35;;
64917;SDS011;52176;44.858;38.372;2023-02-22T01:52:52;2.38;;;1.38;;
64917;SDS011;52176;44.858;38.372;2023-02-22T01:55:18;2.45;;;1.27;;
64917;SDS011;52176;44.858;38.372;2023-02-22T01:57:44;3.53;;;1.15;;
64917;SDS011;52176;44.858;38.372;2023-02-22T02:00:15;5.55;;;1.40;;
64917;SDS011;52176;44.858;38.372;2023-02-22T02:02:48;3.10;;;1.40;;
64917;SDS011;52176;44.858;38.372;2023-02-22T02:05:39;4.63;;;1.42;;
64917;SDS011;52176;44.858;38.372;2023-02-22T02:08:11;1.42;;;1.10;;
64917;SDS011;52176;44.858;38.372;2023-02-22T02:13:19;1.90;;;1.15;;
64917;SDS011;52176;44.858;38.372;2023-02-22T02:15:45;3.25;;;1.13;;
64917;SDS011;52176;44.858;38.372;2023-02-22T02:18:14;2.85;;;1.10;;
64917;SDS011;52176;44.858;38.372;2023-02-22T02:21:21;1.83;;;1.08;;
64917;SDS011;52176;44.858;38.372;2023-02-22T02:29:11;4.05;;;1.27;;
64917;SDS011;52176;44.858;38.372;2023-02-22T02:45:46;2.60;;;1.10;;
64917;SDS011;52176;44.858;38.372;2023-02-22T02:50:42;4.40;;;1.30;;
64917;SDS011;52176;44.858;38.372;2023-02-22T04:49:14;3.28;;;1.17;;
64917;SDS011;52176;44.858;38.372;2023-02-22T04:51:42;5.72;;;1.55;;
64917;SDS011;52176;44.858;38.372;2023-02-22T04:54:10;5.18;;;1.40;;
64917;SDS011;52176;44.858;38.372;2023-02-22T04:56:42;4.43;;;1.58;;
64917;SDS011;52176;44.858;38.372;2023-02-22T04:59:09;3.40;;;1.20;;
64917;SDS011;52176;44.858;38.372;2023-02-22T05:01:37;5.63;;;1.60;;
64917;SDS011;52176;44.858;38.372;2023-02-22T05:04:03;1.75;;;1.25;;
64917;SDS011;52176;44.858;38.372;2023-02-22T05:06:30;6.50;;;1.30;;
64917;SDS011;52176;44.858;38.372;2023-02-22T05:08:56;4.38;;;1.48;;
64917;SDS011;52176;44.858;38.372;2023-02-22T05:11:22;4.32;;;1.38;;
64917;SDS011;52176;44.858;38.372;2023-02-22T05:13:49;5.53;;;1.85;;
64917;SDS011;52176;44.858;38.372;2023-02-22T05:16:16;3.45;;;1.30;;
64917;SDS011;52176;44.858;38.372;2023-02-22T05:18:42;3.10;;;1.45;;
64917;SDS011;52176;44.858;38.372;2023-02-22T05:21:08;5.93;;;1.95;;
64917;SDS011;52176;44.858;38.372;2023-02-22T05:23:34;5.05;;;1.80;;
64917;SDS011;52176;44.858;38.372;2023-02-22T05:26:00;5.13;;;1.63;;
64917;SDS011;52176;44.858;38.372;2023-02-22T05:28:26;7.57;;;1.83;;
64917;SDS011;52176;44.858;38.372;2023-02-22T05:30:52;4.60;;;1.40;;
64917;SDS011;52176;44.858;38.372;2023-02-22T05:33:18;4.57;;;1.48;;
64917;SDS011;52176;44.858;38.372;2023-02-22T05:35:44;5.50;;;1.75;;
64917;SDS011;52176;44.858;38.372;2023-02-22T05:38:13;4.47;;;2.17;;
64917;SDS011;52176;44.858;38.372;2023-02-22T05:40:39;2.53;;;1.58;;
64917;SDS011;52176;44.858;38.372;2023-02-22T05:43:06;5.65;;;1.70;;
64917;SDS011;52176;44.858;38.372;2023-02-22T08:24:16;5.30;;;1.75;;
64917;SDS011;52176;44.858;38.372;2023-02-22T08:26:45;3.35;;;1.50;;
64917;SDS011;52176;44.858;38.372;2023-02-22T08:31:38;8.53;;;1.90;;
64917;SDS011;52176;44.858;38.372;2023-02-22T08:34:05;4.10;;;1.60;;
64917;SDS011;52176;44.858;38.372;2023-02-22T08:36:31;4.25;;;1.60;;
64917;SDS011;52176;44.858;38.372;2023-02-22T08:38:58;3.25;;;1.40;;
64917;SDS011;52176;44.858;38.372;2023-02-22T08:41:24;5.18;;;1.67;;
64917;SDS011;52176;44.858;38.372;2023-02-22T08:43:50;4.10;;;1.65;;
64917;SDS011;52176;44.858;38.372;2023-02-22T08:46:16;2.45;;;1.38;;
64917;SDS011;52176;44.858;38.372;2023-02-22T08:48:49;4.00;;;1.60;;
64917;SDS011;52176;44.858;38.372;2023-02-22T08:51:15;4.60;;;1.73;;
64917;SDS011;52176;44.858;38.372;2023-02-22T08:53:41;4.97;;;1.55;;
64917;SDS011;52176;44.858;38.372;2023-02-22T11:04:18;3.13;;;1.80;;
64917;SDS011;52176;44.858;38.372;2023-02-22T11:06:47;3.50;;;1.95;;
64917;SDS011;52176;44.858;38.372;2023-02-22T11:09:18;3.45;;;1.70;;
64917;SDS011;52176;44.858;38.372;2023-02-22T11:11:48;3.15;;;1.67;;
64917;SDS011;52176;44.858;38.372;2023-02-22T11:14:31;5.75;;;1.70;;
64917;SDS011;52176;44.858;38.372;2023-02-22T11:16:58;4.40;;;1.50;;
64917;SDS011;52176;44.858;38.372;2023-02-22T11:19:26;2.70;;;1.70;;
64917;SDS011;52176;44.858;38.372;2023-02-22T11:21:55;3.13;;;1.58;;
64917;SDS011;52176;44.858;38.372;2023-02-22T12:27:44;3.47;;;1.80;;
64917;SDS011;52176;44.858;38.372;2023-02-22T12:30:17;5.35;;;1.70;;
64917;SDS011;52176;44.858;38.372;2023-02-22T12:32:49;4.25;;;1.52;;
64917;SDS011;52176;44.858;38.372;2023-02-22T12:35:52;4.88;;;1.58;;
64917;SDS011;52176;44.858;38.372;2023-02-22T12:38:34;6.93;;;1.60;;
64917;SDS011;52176;44.858;38.372;2023-02-22T12:42:03;2.83;;;1.45;;
64917;SDS011;52176;44.858;38.372;2023-02-22T12:49:19;4.00;;;1.80;;
64917;SDS011;52176;44.858;38.372;2023-02-22T13:00:19;2.58;;;1.73;;
64917;SDS011;52176;44.858;38.372;2023-02-22T13:05:34;2.72;;;1.70;;
64917;SDS011;52176;44.858;38.372;2023-02-22T13:19:16;2.35;;;1.65;;
64917;SDS011;52176;44.858;38.372;2023-02-22T13:25:05;4.93;;;1.90;;
64917;SDS011;52176;44.858;38.372;2023-02-22T13:27:47;2.92;;;1.80;;
64917;SDS011;52176;44.858;38.372;2023-02-22T13:30:26;7.97;;;1.90;;
64917;SDS011;52176;44.858;38.372;2023-02-22T13:53:04;5.07;;;1.88;;
64917;SDS011;52176;44.858;38.372;2023-02-22T13:55:35;4.40;;;1.80;;
64917;SDS011;52176;44.858;38.372;2023-02-22T13:58:06;4.32;;;2.03;;
64917;SDS011;52176;44.858;38.372;2023-02-22T14:00:41;3.95;;;1.92;;
64917;SDS011;52176;44.858;38.372;2023-02-22T14:05:49;7.63;;;2.17;;
64917;SDS011;52176;44.858;38.372;2023-02-22T14:31:34;5.47;;;2.40;;
64917;SDS011;52176;44.858;38.372;2023-02-22T14:36:47;6.10;;;2.33;;
64917;SDS011;52176;44.858;38.372;2023-02-22T14:46:47;6.93;;;2.90;;
64917;SDS011;52176;44.858;38.372;2023-02-22T14:49:16;6.00;;;3.10;;
64917;SDS011;52176;44.858;38.372;2023-02-22T14:51:50;8.85;;;2.97;;
64917;SDS011;52176;44.858;38.372;2023-02-22T14:54:25;3.20;;;2.30;;
64917;SDS011;52176;44.858;38.372;2023-02-22T14:59:57;6.20;;;3.75;;
64917;SDS011;52176;44.858;38.372;2023-02-22T15:02:53;7.65;;;2.63;;
64917;SDS011;52176;44.858;38.372;2023-02-22T15:05:22;4.28;;;2.55;;
64917;SDS011;52176;44.858;38.372;2023-02-22T15:07:56;5.82;;;2.58;;
64917;SDS011;52176;44.858;38.372;2023-02-22T15:13:04;3.30;;;2.55;;
64917;SDS011;52176;44.858;38.372;2023-02-22T15:15:42;4.20;;;2.70;;
64917;SDS011;52176;44.858;38.372;2023-02-22T15:24:00;5.53;;;2.90;;
64917;SDS011;52176;44.858;38.372;2023-02-22T15:39:02;8.48;;;4.30;;
64917;SDS011;52176;44.858;38.372;2023-02-22T15:41:33;8.32;;;4.63;;
64917;SDS011;52176;44.858;38.372;2023-02-22T15:44:01;5.67;;;3.70;;
64917;SDS011;52176;44.858;38.372;2023-02-22T15:49:02;5.30;;;3.38;;
64917;SDS011;52176;44.858;38.372;2023-02-22T15:51:50;10.55;;;4.32;;
64917;SDS011;52176;44.858;38.372;2023-02-22T15:54:38;8.55;;;4.00;;
64917;SDS011;52176;44.858;38.372;2023-02-22T15:57:06;6.35;;;3.92;;
64917;SDS011;52176;44.858;38.372;2023-02-22T15:59:38;7.22;;;3.80;;
64917;SDS011;52176;44.858;38.372;2023-02-22T16:02:17;5.18;;;3.63;;
64917;SDS011;52176;44.858;38.372;2023-02-22T16:05:02;7.53;;;3.67;;
64917;SDS011;52176;44.858;38.372;2023-02-22T16:07:35;7.13;;;4.15;;
64917;SDS011;52176;44.858;38.372;2023-02-22T16:13:29;6.70;;;4.47;;
64917;SDS011;52176;44.858;38.372;2023-02-22T16:16:02;9.80;;;4.35;;
64917;SDS011;52176;44.858;38.372;2023-02-22T16:18:33;11.65;;;5.32;;
64917;SDS011;52176;44.858;38.372;2023-02-22T16:21:11;13.60;;;4.57;;
64917;SDS011;52176;44.858;38.372;2023-02-22T16:23:57;18.70;;;4.45;;
64917;SDS011;52176;44.858;38.372;2023-02-22T16:26:30;13.10;;;4.78;;
64917;SDS011;52176;44.858;38.372;2023-02-22T16:29:07;12.77;;;4.60;;
64917;SDS011;52176;44.858;38.372;2023-02-22T16:31:35;8.27;;;4.82;;
64917;SDS011;52176;44.858;38.372;2023-02-22T16:34:02;7.82;;;4.03;;
64917;SDS011;52176;44.858;38.372;2023-02-22T16:36:45;7.80;;;4.75;;
64917;SDS011;52176;44.858;38.372;2023-02-22T16:39:19;14.20;;;7.50;;
64917;SDS011;52176;44.858;38.372;2023-02-22T16:41:52;28.48;;;11.82;;
64917;SDS011;52176;44.858;38.372;2023-02-22T16:44:20;29.83;;;9.65;;
64917;SDS011;52176;44.858;38.372;2023-02-22T16:46:52;20.02;;;8.20;;
64917;SDS011;52176;44.858;38.372;2023-02-22T16:49:20;11.10;;;6.40;;
64917;SDS011;52176;44.858;38.372;2023-02-22T16:51:51;13.60;;;5.18;;
64917;SDS011;52176;44.858;38.372;2023-02-22T16:54:24;8.55;;;5.05;;
64917;SDS011;52176;44.858;38.372;2023-02-22T16:56:58;8.18;;;5.07;;
64917;SDS011;52176;44.858;38.372;2023-02-22T16:59:30;7.97;;;4.65;;
64917;SDS011;52176;44.858;38.372;2023-02-22T17:02:00;10.68;;;5.28;;
64917;SDS011;52176;44.858;38.372;2023-02-22T17:04:32;14.88;;;5.53;;
64917;SDS011;52176;44.858;38.372;2023-02-22T17:06:58;11.00;;;4.85;;
64917;SDS011;52176;44.858;38.372;2023-02-22T17:09:27;16.17;;;5.20;;
64917;SDS011;52176;44.858;38.372;2023-02-22T17:11:53;14.77;;;5.10;;
64917;SDS011;52176;44.858;38.372;2023-02-22T17:14:21;14.05;;;5.53;;
64917;SDS011;52176;44.858;38.372;2023-02-22T17:16:49;10.40;;;4.60;;
64917;SDS011;52176;44.858;38.372;2023-02-22T17:19:16;8.32;;;4.68;;
64917;SDS011;52176;44.858;38.372;2023-02-22T17:21:47;12.60;;;4.40;;
64917;SDS011;52176;44.858;38.372;2023-02-22T17:24:14;13.95;;;5.57;;
64917;SDS011;52176;44.858;38.372;2023-02-22T17:26:42;10.88;;;5.20;;
64917;SDS011;52176;44.858;38.372;2023-02-22T17:29:08;12.27;;;7.18;;
64917;SDS011;52176;44.858;38.372;2023-02-22T17:31:34;9.10;;;4.40;;
64917;SDS011;52176;44.858;38.372;2023-02-22T17:34:01;8.30;;;3.92;;
64917;SDS011;52176;44.858;38.372;2023-02-22T17:36:29;7.53;;;4.10;;
64917;SDS011;52176;44.858;38.372;2023-02-22T17:38:56;7.13;;;3.78;;
64917;SDS011;52176;44.858;38.372;2023-02-22T17:41:23;9.40;;;4.30;;
64917;SDS011;52176;44.858;38.372;2023-02-22T17:43:49;5.75;;;4.05;;
64917;SDS011;52176;44.858;38.372;2023-02-22T17:46:16;8.90;;;4.35;;
64917;SDS011;52176;44.858;38.372;2023-02-22T17:48:44;15.32;;;7.05;;
64917;SDS011;52176;44.858;38.372;2023-02-22T17:51:12;12.63;;;7.20;;
64917;SDS011;52176;44.858;38.372;2023-02-22T17:53:39;15.98;;;7.05;;
64917;SDS011;52176;44.858;38.372;2023-02-22T17:56:06;9.38;;;5.22;;
64917;SDS011;52176;44.858;38.372;2023-02-22T17:58:33;10.75;;;4.38;;
64917;SDS011;52176;44.858;38.372;2023-02-22T18:00:59;6.00;;;3.53;;
64917;SDS011;52176;44.858;38.372;2023-02-22T18:03:25;7.65;;;4.03;;
64917;SDS011;52176;44.858;38.372;2023-02-22T18:05:53;5.90;;;3.92;;
64917;SDS011;52176;44.858;38.372;2023-02-22T18:08:22;5.38;;;4.03;;
64917;SDS011;52176;44.858;38.372;2023-02-22T18:10:49;9.30;;;5.15;;
64917;SDS011;52176;44.858;38.372;2023-02-22T18:13:21;6.47;;;4.35;;
64917;SDS011;52176;44.858;38.372;2023-02-22T18:15:49;9.32;;;3.88;;
64917;SDS011;52176;44.858;38.372;2023-02-22T18:18:16;16.25;;;4.60;;
64917;SDS011;52176;44.858;38.372;2023-02-22T18:20:45;5.75;;;4.18;;
64917;SDS011;52176;44.858;38.372;2023-02-22T18:25:45;5.85;;;3.60;;
64917;SDS011;52176;44.858;38.372;2023-02-22T18:28:13;6.10;;;3.55;;
64917;SDS011;52176;44.858;38.372;2023-02-22T18:30:41;7.00;;;4.28;;
64917;SDS011;52176;44.858;38.372;2023-02-22T18:33:07;14.27;;;4.80;;
64917;SDS011;52176;44.858;38.372;2023-02-22T18:35:37;6.47;;;3.83;;
64917;SDS011;52176;44.858;38.372;2023-02-22T18:38:03;12.43;;;4.60;;
64917;SDS011;52176;44.858;38.372;2023-02-22T18:40:29;6.65;;;4.13;;
64917;SDS011;52176;44.858;38.372;2023-02-22T18:42:55;9.05;;;4.40;;
64917;SDS011;52176;44.858;38.372;2023-02-22T18:45:21;8.88;;;4.40;;
64917;SDS011;52176;44.858;38.372;2023-02-22T18:47:47;7.47;;;4.10;;
64917;SDS011;52176;44.858;38.372;2023-02-22T18:50:13;6.60;;;3.90;;
64917;SDS011;52176;44.858;38.372;2023-02-22T18:52:41;9.90;;;4.40;;
64917;SDS011;52176;44.858;38.372;2023-02-22T18:55:13;11.25;;;4.53;;
64917;SDS011;52176;44.858;38.372;2023-02-22T18:57:41;10.25;;;5.28;;
64917;SDS011;52176;44.858;38.372;2023-02-22T19:00:09;19.00;;;5.75;;
64917;SDS011;52176;44.858;38.372;2023-02-22T19:02:36;12.38;;;4.30;;
64917;SDS011;52176;44.858;38.372;2023-02-22T19:05:02;6.35;;;4.10;;
64917;SDS011;52176;44.858;38.372;2023-02-22T19:07:30;8.23;;;4.65;;
64917;SDS011;52176;44.858;38.372;2023-02-22T19:09:57;6.78;;;4.20;;
64917;SDS011;52176;44.858;38.372;2023-02-22T19:12:23;17.58;;;5.18;;
64917;SDS011;52176;44.858;38.372;2023-02-22T19:14:51;9.43;;;5.15;;
64917;SDS011;52176;44.858;38.372;2023-02-22T19:17:17;9.27;;;4.90;;
64917;SDS011;52176;44.858;38.372;2023-02-22T19:19:46;7.10;;;4.22;;
64917;SDS011;52176;44.858;38.372;2023-02-22T19:22:12;7.55;;;4.40;;
64917;SDS011;52176;44.858;38.372;2023-02-22T19:24:42;7.43;;;4.03;;
64917;SDS011;52176;44.858;38.372;2023-02-22T19:27:09;9.50;;;5.75;;
64917;SDS011;52176;44.858;38.372;2023-02-22T19:29:37;18.50;;;8.70;;
64917;SDS011;52176;44.858;38.372;2023-02-22T19:32:07;16.20;;;8.10;;
64917;SDS011;52176;44.858;38.372;2023-02-22T19:34:34;10.98;;;6.25;;
64917;SDS011;52176;44.858;38.372;2023-02-22T19:37:01;8.90;;;4.95;;
64917;SDS011;52176;44.858;38.372;2023-02-22T19:39:29;9.88;;;5.05;;
64917;SDS011;52176;44.858;38.372;2023-02-22T19:41:57;6.50;;;4.35;;
64917;SDS011;52176;44.858;38.372;2023-02-22T19:44:24;8.60;;;4.28;;
64917;SDS011;52176;44.858;38.372;2023-02-22T19:46:51;9.10;;;4.50;;
64917;SDS011;52176;44.858;38.372;2023-02-22T19:49:20;9.68;;;4.60;;
64917;SDS011;52176;44.858;38.372;2023-02-22T19:51:49;8.07;;;4.88;;
64917;SDS011;52176;44.858;38.372;2023-02-22T19:54:18;11.18;;;4.30;;
64917;SDS011;52176;44.858;38.372;2023-02-22T19:56:45;5.90;;;4.05;;
64917;SDS011;52176;44.858;38.372;2023-02-22T19:59:15;8.07;;;4.30;;
64917;SDS011;52176;44.858;38.372;2023-02-22T20:01:47;8.98;;;4.50;;
64917;SDS011;52176;44.858;38.372;2023-02-22T20:04:14;11.70;;;4.13;;
64917;SDS011;52176;44.858;38.372;2023-02-22T20:06:54;7.20;;;3.88;;
64917;SDS011;52176;44.858;38.372;2023-02-22T20:09:30;10.10;;;3.65;;
64917;SDS011;52176;44.858;38.372;2023-02-22T20:12:07;9.88;;;4.43;;
64917;SDS011;52176;44.858;38.372;2023-02-22T20:14:33;6.82;;;3.70;;
64917;SDS011;52176;44.858;38.372;2023-02-22T20:16:59;5.47;;;3.90;;
64917;SDS011;52176;44.858;38.372;2023-02-22T20:19:26;7.05;;;3.75;;
64917;SDS011;52176;44.858;38.372;2023-02-22T20:21:53;9.07;;;4.45;;
64917;SDS011;52176;44.858;38.372;2023-02-22T20:24:20;5.63;;;3.55;;
64917;SDS011;52176;44.858;38.372;2023-02-22T20:26:47;6.93;;;4.25;;
64917;SDS011;52176;44.858;38.372;2023-02-22T20:29:14;7.32;;;3.40;;
64917;SDS011;52176;44.858;38.372;2023-02-22T20:31:41;7.32;;;3.92;;
64917;SDS011;52176;44.858;38.372;2023-02-22T20:34:08;6.68;;;4.00;;
64917;SDS011;52176;44.858;38.372;2023-02-22T20:36:38;12.77;;;5.07;;
64917;SDS011;52176;44.858;38.372;2023-02-22T20:39:06;11.20;;;4.75;;
64917;SDS011;52176;44.858;38.372;2023-02-22T20:41:40;8.05;;;5.00;;
64917;SDS011;52176;44.858;38.372;2023-02-22T20:44:08;10.63;;;5.00;;
64917;SDS011;52176;44.858;38.372;2023-02-22T20:46:37;8.07;;;5.07;;
64917;SDS011;52176;44.858;38.372;2023-02-22T20:49:05;6.90;;;4.88;;
64917;SDS011;52176;44.858;38.372;2023-02-22T20:51:33;7.47;;;4.60;;
64917;SDS011;52176;44.858;38.372;2023-02-22T20:53:59;6.90;;;5.03;;
64917;SDS011;52176;44.858;38.372;2023-02-22T20:56:28;11.27;;;5.30;;
64917;SDS011;52176;44.858;38.372;2023-02-22T20:58:55;10.75;;;5.00;;
64917;SDS011;52176;44.858;38.372;2023-02-22T21:01:22;15.00;;;5.60;;
64917;SDS011;52176;44.858;38.372;2023-02-22T21:03:48;10.02;;;5.38;;
64917;SDS011;52176;44.858;38.372;2023-02-22T21:06:15;9.07;;;5.57;;
64917;SDS011;52176;44.858;38.372;2023-02-22T21:08:49;10.15;;;5.13;;
64917;SDS011;52176;44.858;38.372;2023-02-22T21:11:20;12.98;;;5.65;;
64917;SDS011;52176;44.858;38.372;2023-02-22T21:13:47;10.02;;;5.13;;
64917;SDS011;52176;44.858;38.372;2023-02-22T21:16:15;10.98;;;5.13;;
64917;SDS011;52176;44.858;38.372;2023-02-22T21:18:43;11.43;;;5.22;;
64917;SDS011;52176;44.858;38.372;2023-02-22T21:21:09;9.02;;;5.38;;
64917;SDS011;52176;44.858;38.372;2023-02-22T21:23:37;7.20;;;4.90;;
64917;SDS011;52176;44.858;38.372;2023-02-22T21:26:04;11.90;;;5.40;;
64917;SDS011;52176;44.858;38.372;2023-02-22T21:28:31;9.27;;;4.90;;
64917;SDS011;52176;44.858;38.372;2023-02-22T21:31:06;8.38;;;5.28;;
64917;SDS011;52176;44.858;38.372;2023-02-22T21:33:41;10.65;;;5.03;;
64917;SDS011;52176;44.858;38.372;2023-02-22T21:36:08;7.88;;;4.65;;
64917;SDS011;52176;44.858;38.372;2023-02-22T21:38:41;6.95;;;4.85;;
64917;SDS011;52176;44.858;38.372;2023-02-22T21:41:10;6.85;;;4.68;;
64917;SDS011;52176;44.858;38.372;2023-02-22T21:43:37;10.00;;;4.88;;
64917;SDS011;52176;44.858;38.372;2023-02-22T21:46:07;7.97;;;5.05;;
64917;SDS011;52176;44.858;38.372;2023-02-22T21:48:38;7.90;;;5.15;;
64917;SDS011;52176;44.858;38.372;2023-02-22T21:51:12;10.30;;;5.20;;
64917;SDS011;52176;44.858;38.372;2023-02-22T21:53:55;8.52;;;4.53;;
64917;SDS011;52176;44.858;38.372;2023-02-22T21:56:25;10.70;;;4.72;;
64917;SDS011;52176;44.858;38.372;2023-02-22T21:58:56;14.48;;;4.40;;
64917;SDS011;52176;44.858;38.372;2023-02-22T22:01:28;12.15;;;4.95;;
64917;SDS011;52176;44.858;38.372;2023-02-22T22:03:56;12.90;;;4.13;;
64917;SDS011;52176;44.858;38.372;2023-02-22T22:06:29;8.50;;;4.78;;
64917;SDS011;52176;44.858;38.372;2023-02-22T22:08:56;7.40;;;5.05;;
64917;SDS011;52176;44.858;38.372;2023-02-22T22:11:24;9.95;;;6.13;;
64917;SDS011;52176;44.858;38.372;2023-02-22T22:13:51;15.40;;;5.90;;
64917;SDS011;52176;44.858;38.372;2023-02-22T22:16:21;10.52;;;6.00;;
64917;SDS011;52176;44.858;38.372;2023-02-22T22:18:50;8.27;;;5.63;;
64917;SDS011;52176;44.858;38.372;2023-02-22T22:21:17;10.82;;;6.53;;
64917;SDS011;52176;44.858;38.372;2023-02-22T22:23:47;9.95;;;6.45;;
64917;SDS011;52176;44.858;38.372;2023-02-22T22:26:18;8.45;;;5.70;;
64917;SDS011;52176;44.858;38.372;2023-02-22T22:28:48;8.82;;;5.05;;
64917;SDS011;52176;44.858;38.372;2023-02-22T22:31:19;15.32;;;4.68;;
64917;SDS011;52176;44.858;38.372;2023-02-22T22:33:47;12.67;;;5.50;;
64917;SDS011;52176;44.858;38.372;2023-02-22T22:38:40;10.30;;;6.50;;
64917;SDS011;52176;44.858;38.372;2023-02-22T23:36:05;10.63;;;6.78;;
